Lakenheath, United Kingdom
Current Conditions -  °F | °C
As of 1:58 PM on Sunday 25 Jan 2015 (Local Time) from EGUL Reporting Station
Broken Clouds Broken Clouds  
Wind Chill: 39°   Ceiling: 13000
Heat Index: 46°   Visibility: 6mi
Dew Point: 46°   Wind: 15mph
Humidity: 100%   Direction: 250°WSW
Pressure: 30.31"   Gusts: NA
Location:  52.42°N, 0.52°E
Report Text: EGUL 251358Z AUTO 25013KT 9999 BKN130 08/08 A3031 RMK AO2 SLP268 T00750075 $
Loading
Personal Weather Stations






























Interactive Weather Map New forecast layout! Learn more

10-Day Weather Forecast

Advertisements
Track Severe Weather on mobile